createdAt,value
2023-11-26T00:01:20.687Z,10.10
2023-11-26T00:03:52.847Z,11.30
2023-11-26T00:06:25.992Z,10.70
2023-11-26T00:08:58.072Z,16.10
2023-11-26T00:11:29.894Z,16.40
2023-11-26T00:14:02.094Z,18.30
2023-11-26T00:16:39.233Z,11.70
2023-11-26T00:19:11.407Z,9.60
2023-11-26T00:21:43.166Z,10.10
2023-11-26T00:24:15.013Z,11.20
2023-11-26T00:26:46.971Z,11.40
2023-11-26T00:29:19.674Z,17.50
2023-11-26T00:31:53.305Z,18.60
2023-11-26T00:34:25.207Z,14.50
2023-11-26T00:36:58.075Z,12.00
2023-11-26T00:39:31.496Z,14.20
2023-11-26T00:42:03.333Z,14.70
2023-11-26T00:44:35.394Z,11.90
2023-11-26T00:47:08.333Z,11.00
2023-11-26T00:49:40.686Z,12.50
2023-11-26T00:52:12.795Z,13.30
2023-11-26T00:54:44.608Z,13.10
2023-11-26T00:57:17.008Z,13.00
2023-11-26T00:59:48.889Z,13.70
2023-11-26T01:02:23.321Z,13.30
2023-11-26T01:04:55.375Z,12.80
2023-11-26T01:07:31.325Z,11.90
2023-11-26T01:10:04.121Z,14.60
2023-11-26T01:12:36.019Z,13.10
2023-11-26T01:15:09.845Z,14.00
2023-11-26T01:17:42.168Z,13.00
2023-11-26T01:20:14.862Z,15.00
2023-11-26T01:22:46.782Z,14.60
2023-11-26T01:25:18.890Z,12.10
2023-11-26T01:27:50.678Z,16.80
2023-11-26T01:30:23.214Z,14.00
2023-11-26T01:32:55.300Z,12.70
2023-11-26T01:35:27.155Z,13.30
2023-11-26T01:37:59.096Z,15.10
2023-11-26T01:40:31.338Z,15.50
2023-11-26T01:43:04.096Z,13.40
2023-11-26T01:45:35.946Z,13.40
2023-11-26T01:48:08.449Z,17.30
2023-11-26T01:50:40.295Z,14.00
2023-11-26T01:53:12.179Z,12.80
2023-11-26T01:55:44.263Z,14.90
2023-11-26T01:58:17.017Z,13.40
2023-11-26T02:00:48.874Z,14.00
2023-11-26T02:03:20.897Z,14.10
2023-11-26T02:05:53.761Z,15.50
2023-11-26T02:08:26.229Z,17.20
2023-11-26T02:10:58.138Z,19.00
2023-11-26T02:13:30.448Z,21.90
2023-11-26T02:16:02.392Z,15.10
2023-11-26T02:18:34.175Z,15.50
2023-11-26T02:21:09.058Z,14.70
2023-11-26T02:23:41.517Z,18.90
2023-11-26T02:26:13.445Z,16.20
2023-11-26T02:28:45.974Z,16.80
2023-11-26T02:31:18.179Z,15.10
2023-11-26T02:33:55.034Z,15.00
2023-11-26T02:36:28.600Z,19.70
2023-11-26T02:39:00.535Z,16.80
2023-11-26T02:41:32.538Z,15.90
2023-11-26T02:44:04.768Z,16.00
2023-11-26T02:46:38.125Z,16.20
2023-11-26T02:49:10.168Z,17.70
2023-11-26T02:51:42.063Z,24.10
2023-11-26T02:54:13.844Z,17.50
2023-11-26T02:56:46.756Z,15.80
2023-11-26T02:59:19.450Z,22.60
2023-11-26T03:01:54.633Z,19.60
2023-11-26T03:04:26.655Z,17.70
2023-11-26T03:06:59.986Z,16.20
2023-11-26T03:09:42.291Z,15.20
2023-11-26T03:12:28.021Z,18.80
2023-11-26T03:14:59.776Z,13.30
2023-11-26T03:17:31.993Z,17.40
2023-11-26T03:20:04.166Z,14.60
2023-11-26T03:22:37.955Z,13.00
2023-11-26T03:25:11.141Z,13.20
2023-11-26T03:27:43.116Z,12.50
2023-11-26T03:30:15.229Z,14.20
2023-11-26T03:32:47.410Z,15.40
2023-11-26T03:35:19.473Z,14.40
2023-11-26T03:37:51.469Z,14.00
2023-11-26T03:40:25.009Z,11.60
2023-11-26T03:42:56.906Z,15.70
2023-11-26T03:45:28.765Z,16.20
2023-11-26T03:48:01.697Z,19.80
2023-11-26T03:50:33.940Z,19.70
2023-11-26T03:53:05.968Z,17.40
2023-11-26T03:55:39.283Z,17.10
2023-11-26T03:58:11.693Z,15.30
2023-11-26T04:00:43.754Z,15.10
2023-11-26T04:03:16.180Z,16.50
2023-11-26T04:05:48.620Z,15.90
2023-11-26T04:08:21.103Z,17.20
2023-11-26T04:10:53.262Z,18.80
2023-11-26T04:13:26.311Z,20.40
2023-11-26T04:15:59.983Z,18.90
2023-11-26T04:18:32.594Z,18.80
2023-11-26T04:21:08.477Z,21.60
2023-11-26T04:23:40.721Z,22.50
2023-11-26T04:26:12.737Z,21.60
2023-11-26T04:28:44.813Z,21.60
2023-11-26T04:31:17.627Z,19.80
2023-11-26T04:33:49.727Z,18.50
2023-11-26T04:36:22.535Z,27.60
2023-11-26T04:38:55.038Z,25.00
2023-11-26T04:41:27.609Z,17.60
2023-11-26T04:43:59.905Z,18.40
2023-11-26T04:46:32.047Z,15.90
2023-11-26T04:49:04.960Z,19.10
2023-11-26T04:51:40.297Z,16.50
2023-11-26T04:54:13.866Z,16.70
2023-11-26T04:56:45.884Z,16.70
2023-11-26T04:59:18.930Z,17.50
2023-11-26T05:01:55.666Z,16.40
2023-11-26T05:04:28.004Z,15.60
2023-11-26T05:07:00.083Z,15.10
2023-11-26T05:09:32.520Z,15.80
2023-11-26T05:12:06.326Z,15.90
2023-11-26T05:14:38.518Z,17.00
2023-11-26T05:17:11.476Z,19.50
2023-11-26T05:19:43.763Z,18.20
2023-11-26T05:22:15.799Z,18.00
2023-11-26T05:24:47.961Z,13.80
2023-11-26T05:27:23.039Z,13.70
2023-11-26T05:29:55.211Z,17.50
2023-11-26T05:32:27.257Z,16.90
2023-11-26T05:35:00.455Z,14.40
2023-11-26T05:37:32.723Z,20.20
2023-11-26T05:40:06.339Z,15.70
2023-11-26T05:42:38.729Z,15.30
2023-11-26T05:45:12.380Z,15.20
2023-11-26T05:47:44.619Z,14.80
2023-11-26T05:50:17.367Z,18.10
2023-11-26T05:52:49.739Z,14.30
2023-11-26T05:55:23.265Z,10.80
2023-11-26T05:57:55.833Z,11.10
2023-11-26T06:00:27.937Z,13.60
2023-11-26T06:03:00.087Z,11.80
2023-11-26T06:05:32.397Z,12.70
2023-11-26T06:08:04.870Z,15.80
2023-11-26T06:10:37.331Z,12.80
2023-11-26T06:13:09.423Z,15.50
2023-11-26T06:15:41.805Z,10.40
2023-11-26T06:18:13.905Z,12.50
2023-11-26T06:20:46.086Z,9.50
2023-11-26T06:23:18.251Z,11.00
2023-11-26T06:25:50.258Z,9.10
2023-11-26T06:28:22.369Z,8.50
2023-11-26T06:30:54.604Z,11.70
2023-11-26T06:33:27.041Z,13.40
2023-11-26T06:35:59.175Z,17.60
2023-11-26T06:38:31.950Z,19.70
2023-11-26T06:41:04.535Z,17.90
2023-11-26T06:43:36.514Z,13.60
2023-11-26T06:46:18.078Z,13.60
2023-11-26T06:48:51.269Z,10.60
2023-11-26T06:51:24.216Z,10.30
2023-11-26T06:53:56.519Z,11.10
2023-11-26T06:56:28.572Z,9.00
2023-11-26T06:59:00.528Z,11.90
2023-11-26T07:01:32.921Z,9.40
2023-11-26T07:04:05.385Z,10.70
2023-11-26T07:06:37.565Z,9.90
2023-11-26T07:09:10.440Z,10.90
2023-11-26T07:11:42.499Z,10.50
2023-11-26T07:14:14.626Z,9.10
2023-11-26T07:16:47.370Z,10.00
2023-11-26T07:19:21.473Z,11.20
2023-11-26T07:21:53.863Z,8.60
2023-11-26T07:24:26.133Z,11.80
2023-11-26T07:26:58.385Z,9.90
2023-11-26T07:29:30.569Z,9.60
2023-11-26T07:32:02.827Z,9.20
2023-11-26T07:34:34.831Z,9.20
2023-11-26T07:37:07.410Z,9.20
2023-11-26T07:39:39.529Z,12.10
2023-11-26T07:42:11.822Z,10.90
2023-11-26T07:44:44.000Z,11.10
2023-11-26T07:47:16.025Z,11.20
2023-11-26T07:49:48.060Z,10.60
2023-11-26T07:52:20.166Z,9.30
2023-11-26T07:54:52.290Z,14.50
2023-11-26T07:57:24.411Z,9.70
2023-11-26T07:59:56.435Z,12.10
2023-11-26T08:02:30.687Z,11.80
2023-11-26T08:05:04.378Z,13.10
2023-11-26T08:07:37.887Z,12.00
2023-11-26T08:10:19.595Z,15.70
2023-11-26T08:12:51.888Z,10.30
2023-11-26T08:15:25.438Z,10.70
2023-11-26T08:17:58.322Z,8.90
2023-11-26T08:20:30.881Z,11.80
2023-11-26T08:23:04.013Z,13.00
2023-11-26T08:25:38.092Z,14.20
2023-11-26T08:28:10.572Z,10.10
2023-11-26T08:30:45.775Z,11.00
2023-11-26T08:33:22.132Z,9.20
2023-11-26T08:36:00.940Z,9.90
2023-11-26T08:38:35.642Z,10.30
2023-11-26T08:41:11.860Z,10.80
2023-11-26T08:43:46.397Z,11.10
2023-11-26T08:46:20.793Z,10.00
2023-11-26T08:48:54.458Z,10.50
2023-11-26T08:51:28.862Z,9.90
2023-11-26T08:54:03.864Z,10.60
2023-11-26T08:56:36.353Z,29.10
2023-11-26T08:59:08.539Z,11.20
2023-11-26T09:01:40.967Z,8.90
2023-11-26T09:04:13.480Z,7.80
2023-11-26T09:06:45.620Z,7.50
2023-11-26T09:09:17.789Z,7.30
2023-11-26T09:11:50.372Z,9.20
2023-11-26T09:14:22.416Z,8.20
2023-11-26T09:16:54.506Z,7.60
2023-11-26T09:19:26.838Z,11.10
2023-11-26T09:22:03.597Z,8.50
2023-11-26T09:24:36.467Z,10.80
2023-11-26T09:27:10.222Z,8.30
2023-11-26T09:29:42.241Z,10.30
2023-11-26T09:32:14.592Z,11.90
2023-11-26T09:34:46.742Z,17.80
2023-11-26T09:37:19.619Z,10.10
2023-11-26T09:39:51.614Z,10.50
2023-11-26T09:42:25.791Z,6.70
2023-11-26T09:44:58.103Z,6.40
2023-11-26T09:47:30.923Z,8.90
2023-11-26T09:50:04.010Z,9.70
2023-11-26T09:52:38.256Z,9.70
2023-11-26T09:55:11.787Z,11.20
2023-11-26T09:57:44.071Z,7.90
2023-11-26T10:00:18.535Z,8.50
2023-11-26T10:03:03.682Z,11.80
2023-11-26T10:05:37.116Z,28.60
2023-11-26T10:08:27.335Z,11.80
2023-11-26T10:11:00.138Z,7.30
2023-11-26T10:13:41.041Z,6.40
2023-11-26T10:16:14.070Z,7.90
2023-11-26T10:18:46.548Z,7.90
2023-11-26T10:21:18.977Z,7.90
2023-11-26T10:23:51.164Z,8.60
2023-11-26T10:26:27.458Z,11.80
2023-11-26T10:29:05.091Z,8.80
2023-11-26T10:31:37.769Z,8.70
2023-11-26T10:34:15.321Z,8.10
2023-11-26T10:36:47.537Z,9.50
2023-11-26T10:39:19.660Z,7.50
2023-11-26T10:41:52.628Z,8.50
2023-11-26T10:44:26.115Z,8.00
2023-11-26T10:47:02.484Z,12.10
2023-11-26T10:49:41.840Z,10.80
2023-11-26T10:52:25.178Z,8.20
2023-11-26T10:55:04.935Z,8.40
2023-11-26T10:57:42.214Z,7.20
2023-11-26T11:00:20.793Z,9.20
2023-11-26T11:02:53.418Z,7.20
2023-11-26T11:05:26.980Z,6.00
2023-11-26T11:08:00.779Z,5.30
2023-11-26T11:10:41.550Z,7.10
2023-11-26T11:15:47.490Z,6.50
2023-11-26T11:18:43.334Z,7.00
2023-11-26T11:21:17.727Z,5.10
2023-11-26T11:23:51.830Z,6.30
2023-11-26T11:26:26.385Z,10.80
2023-11-26T11:29:01.524Z,9.10
2023-11-26T11:32:02.065Z,8.20
2023-11-26T11:34:34.781Z,8.70
2023-11-26T11:37:09.497Z,8.30
2023-11-26T11:39:51.388Z,7.50
2023-11-26T11:42:28.142Z,6.30
2023-11-26T11:45:30.376Z,5.60
2023-11-26T11:48:02.503Z,9.20
2023-11-26T11:50:34.590Z,6.70
2023-11-26T11:53:07.775Z,6.30
2023-11-26T11:55:59.317Z,6.60
2023-11-26T11:58:31.508Z,11.70
2023-11-26T12:01:05.148Z,7.50
2023-11-26T12:03:39.394Z,7.40
2023-11-26T12:06:17.354Z,5.50
2023-11-26T12:08:57.474Z,5.50
2023-11-26T12:11:30.117Z,4.40
2023-11-26T12:14:02.159Z,6.00
2023-11-26T12:16:34.292Z,4.80
2023-11-26T12:19:08.210Z,4.10
2023-11-26T12:21:40.398Z,5.00
2023-11-26T12:24:23.961Z,4.70
2023-11-26T12:26:56.250Z,5.20
2023-11-26T12:29:28.781Z,5.60
2023-11-26T12:32:06.462Z,4.40
2023-11-26T12:34:40.050Z,5.30
2023-11-26T12:37:13.180Z,5.40
2023-11-26T12:39:46.546Z,6.80
2023-11-26T12:42:19.528Z,5.80
2023-11-26T12:44:51.616Z,9.10
2023-11-26T12:47:24.938Z,9.00
2023-11-26T12:50:02.381Z,8.80
2023-11-26T12:52:37.614Z,9.70
2023-11-26T12:55:11.971Z,14.20
2023-11-26T12:57:44.985Z,11.80
2023-11-26T13:00:18.190Z,5.30
2023-11-26T13:03:07.323Z,4.90
2023-11-26T13:05:40.651Z,7.90
2023-11-26T13:08:23.950Z,7.30
2023-11-26T13:10:58.791Z,8.90
2023-11-26T13:13:33.488Z,9.40
2023-11-26T13:16:09.031Z,9.10
2023-11-26T13:18:41.902Z,6.30
2023-11-26T13:21:15.075Z,9.40
2023-11-26T13:23:47.355Z,10.70
2023-11-26T13:26:19.409Z,16.20
2023-11-26T13:28:51.795Z,15.50
2023-11-26T13:31:24.664Z,32.30
2023-11-26T13:33:56.754Z,19.40
2023-11-26T13:36:29.008Z,12.60
2023-11-26T13:39:01.601Z,8.80
2023-11-26T13:41:33.723Z,30.20
2023-11-26T13:44:06.332Z,29.30
2023-11-26T13:46:38.410Z,13.40
2023-11-26T13:49:13.088Z,13.00
2023-11-26T13:51:45.627Z,12.60
2023-11-26T13:54:17.844Z,10.30
2023-11-26T13:56:49.890Z,7.40
2023-11-26T13:59:22.818Z,7.90
2023-11-26T14:01:55.654Z,8.30
2023-11-26T14:04:27.950Z,10.80
2023-11-26T14:07:00.258Z,8.90
2023-11-26T14:09:32.540Z,12.60
2023-11-26T14:12:04.764Z,10.60
2023-11-26T14:14:36.816Z,8.00
2023-11-26T14:17:12.002Z,11.50
2023-11-26T14:19:44.032Z,6.40
2023-11-26T14:22:16.115Z,6.30
2023-11-26T14:24:48.475Z,8.50
2023-11-26T14:27:20.814Z,7.70
2023-11-26T14:29:53.257Z,11.60
2023-11-26T14:32:25.638Z,9.00
2023-11-26T14:34:58.074Z,11.80
2023-11-26T14:37:30.228Z,14.10
2023-11-26T14:40:11.221Z,11.20
2023-11-26T14:42:44.593Z,10.00
2023-11-26T14:45:17.822Z,9.30
2023-11-26T14:47:50.115Z,9.10
2023-11-26T14:50:22.771Z,12.40
2023-11-26T14:52:54.849Z,9.80
2023-11-26T14:55:27.347Z,13.60
2023-11-26T14:57:59.586Z,9.10
2023-11-26T15:00:31.962Z,8.40
2023-11-26T15:03:04.626Z,8.20
2023-11-26T15:05:37.089Z,10.80
2023-11-26T15:08:09.466Z,12.20
2023-11-26T15:10:41.611Z,22.80
2023-11-26T15:13:13.661Z,10.90
2023-11-26T15:15:45.893Z,11.60
2023-11-26T15:18:19.469Z,14.60
2023-11-26T15:20:52.048Z,11.20
2023-11-26T15:23:24.715Z,12.00
2023-11-26T15:25:57.037Z,17.00
2023-11-26T15:28:29.833Z,11.20
2023-11-26T15:31:01.959Z,7.60
2023-11-26T15:33:34.272Z,11.40
2023-11-26T15:36:08.776Z,16.90
2023-11-26T15:38:40.879Z,7.60
2023-11-26T15:41:20.179Z,7.70
2023-11-26T15:43:52.372Z,7.70
2023-11-26T15:46:27.016Z,9.20
2023-11-26T15:48:59.564Z,10.00
2023-11-26T15:51:32.115Z,10.00
2023-11-26T15:54:05.418Z,13.00
2023-11-26T15:56:37.652Z,9.10
2023-11-26T15:59:10.812Z,8.80
2023-11-26T16:01:43.239Z,8.70
2023-11-26T16:04:15.358Z,11.00
2023-11-26T16:06:47.461Z,15.10
2023-11-26T16:09:20.107Z,17.90
2023-11-26T16:11:52.178Z,30.80
2023-11-26T16:14:24.148Z,26.70
2023-11-26T16:17:05.071Z,23.30
2023-11-26T16:19:51.121Z,24.00
2023-11-26T16:22:24.176Z,23.20
2023-11-26T16:24:56.675Z,16.60
2023-11-26T16:27:28.837Z,18.60
2023-11-26T16:30:03.515Z,22.60
2023-11-26T16:32:36.445Z,24.90
2023-11-26T16:35:10.243Z,22.00
2023-11-26T16:37:43.648Z,19.00
2023-11-26T16:40:17.044Z,13.60
2023-11-26T16:42:49.080Z,9.90
2023-11-26T16:45:21.188Z,10.10
2023-11-26T16:47:54.864Z,13.10
2023-11-26T16:50:27.017Z,24.70
2023-11-26T16:52:59.416Z,18.80
2023-11-26T16:55:32.502Z,23.40
2023-11-26T16:58:04.604Z,33.90
2023-11-26T17:00:37.141Z,25.40
2023-11-26T17:03:10.820Z,20.70
2023-11-26T17:05:43.606Z,19.30
2023-11-26T17:08:15.871Z,14.20
2023-11-26T17:10:48.539Z,16.50
2023-11-26T17:13:20.645Z,15.30
2023-11-26T17:15:52.976Z,22.50
2023-11-26T17:18:25.497Z,17.90
2023-11-26T17:20:57.720Z,15.20
2023-11-26T17:23:29.756Z,22.70
2023-11-26T17:26:02.167Z,12.50
2023-11-26T17:28:34.984Z,11.80
2023-11-26T17:31:07.539Z,12.70
2023-11-26T17:33:39.825Z,19.90
2023-11-26T17:36:13.713Z,23.00
2023-11-26T17:38:46.318Z,24.50
2023-11-26T17:41:19.107Z,28.10
2023-11-26T17:43:53.420Z,38.80
2023-11-26T17:46:27.193Z,38.00
2023-11-26T17:48:59.392Z,44.40
2023-11-26T17:51:31.874Z,38.80
2023-11-26T17:54:04.942Z,33.60
2023-11-26T17:56:37.339Z,33.40
2023-11-26T17:59:09.340Z,32.30
2023-11-26T18:01:41.486Z,26.90
2023-11-26T18:04:13.669Z,26.80
2023-11-26T18:06:46.303Z,17.30
2023-11-26T18:09:19.001Z,12.70
2023-11-26T18:11:52.337Z,11.80
2023-11-26T18:14:24.407Z,17.50
2023-11-26T18:16:56.633Z,25.10
2023-11-26T18:19:28.819Z,27.10
2023-11-26T18:22:01.198Z,28.10
2023-11-26T18:24:33.764Z,32.90
2023-11-26T18:27:06.633Z,40.80
2023-11-26T18:29:40.478Z,48.60
2023-11-26T18:32:13.318Z,52.90
2023-11-26T18:34:47.354Z,51.40
2023-11-26T18:37:22.233Z,40.00
2023-11-26T18:39:54.698Z,38.80
2023-11-26T18:42:27.341Z,41.90
2023-11-26T18:44:59.408Z,37.00
2023-11-26T18:47:31.491Z,39.90
2023-11-26T18:50:03.953Z,49.20
2023-11-26T18:52:36.041Z,50.70
2023-11-26T18:55:09.448Z,49.40
2023-11-26T18:57:41.522Z,57.80
2023-11-26T19:00:16.108Z,48.90
2023-11-26T19:02:48.138Z,44.70
2023-11-26T19:05:20.308Z,43.60
2023-11-26T19:07:52.486Z,39.40
2023-11-26T19:10:24.600Z,39.70
2023-11-26T19:12:56.639Z,35.80
2023-11-26T19:15:28.893Z,26.40
2023-11-26T19:18:01.094Z,24.80
2023-11-26T19:20:33.182Z,23.60
2023-11-26T19:23:05.312Z,22.40
2023-11-26T19:25:37.664Z,19.80
2023-11-26T19:28:09.763Z,17.80
2023-11-26T19:30:41.974Z,13.20
2023-11-26T19:33:14.303Z,21.00
2023-11-26T19:35:47.636Z,24.30
2023-11-26T19:38:19.646Z,17.60
2023-11-26T19:40:51.717Z,13.70
2023-11-26T19:43:23.759Z,15.20
2023-11-26T19:45:55.886Z,18.20
2023-11-26T19:48:27.978Z,15.40
2023-11-26T19:51:00.085Z,12.60
2023-11-26T19:53:34.147Z,13.10
2023-11-26T19:56:07.860Z,12.90
2023-11-26T19:58:40.850Z,16.50
2023-11-26T20:01:15.038Z,17.80
2023-11-26T20:03:47.559Z,18.10
2023-11-26T20:06:19.798Z,18.50
2023-11-26T20:08:55.341Z,16.70
2023-11-26T20:11:27.965Z,21.10
2023-11-26T20:14:00.069Z,29.50
2023-11-26T20:16:32.520Z,37.00
2023-11-26T20:19:05.405Z,35.40
2023-11-26T20:21:38.520Z,27.80
2023-11-26T20:24:17.550Z,29.80
2023-11-26T20:26:49.643Z,31.00
2023-11-26T20:29:28.505Z,28.50
2023-11-26T20:32:00.632Z,23.30
2023-11-26T20:34:32.659Z,23.90
2023-11-26T20:37:05.481Z,21.80
2023-11-26T20:39:37.614Z,23.10
2023-11-26T20:42:10.036Z,26.50
2023-11-26T20:44:47.536Z,30.10
2023-11-26T20:47:20.064Z,27.40
2023-11-26T20:49:52.274Z,24.20
2023-11-26T20:52:24.360Z,38.20
2023-11-26T20:54:56.410Z,20.90
2023-11-26T20:57:28.605Z,24.20
2023-11-26T21:00:01.120Z,35.10
2023-11-26T21:02:33.440Z,29.80
2023-11-26T21:05:08.050Z,20.90
2023-11-26T21:07:41.033Z,30.00
2023-11-26T21:10:13.822Z,17.90
2023-11-26T21:12:45.993Z,16.90
2023-11-26T21:15:21.393Z,18.50
2023-11-26T21:17:53.802Z,13.70
2023-11-26T21:20:25.811Z,13.40
2023-11-26T21:22:58.242Z,13.00
2023-11-26T21:25:30.221Z,15.20
2023-11-26T21:28:02.338Z,14.20
2023-11-26T21:30:34.524Z,13.20
2023-11-26T21:33:06.960Z,13.20
2023-11-26T21:35:39.778Z,15.70
2023-11-26T21:38:11.971Z,14.30
2023-11-26T21:40:53.165Z,14.80
2023-11-26T21:43:29.575Z,13.70
2023-11-26T21:46:02.368Z,13.70
2023-11-26T21:48:34.598Z,18.70
2023-11-26T21:51:07.527Z,19.20
2023-11-26T21:53:39.838Z,14.90
2023-11-26T21:56:12.913Z,13.30
2023-11-26T21:58:44.949Z,14.10
2023-11-26T22:01:18.862Z,13.90
2023-11-26T22:03:52.052Z,12.90
2023-11-26T22:06:24.613Z,15.00
2023-11-26T22:08:57.157Z,13.60
2023-11-26T22:11:29.378Z,14.70
2023-11-26T22:14:01.883Z,14.00
2023-11-26T22:16:34.153Z,11.90
2023-11-26T22:19:07.259Z,12.40
2023-11-26T22:21:40.061Z,14.00
2023-11-26T22:24:12.191Z,13.50
2023-11-26T22:26:44.710Z,13.50
2023-11-26T22:29:16.757Z,17.30
2023-11-26T22:31:49.266Z,15.70
2023-11-26T22:34:21.463Z,15.00
2023-11-26T22:36:54.237Z,21.80
2023-11-26T22:39:26.720Z,17.60
2023-11-26T22:41:58.866Z,16.10
2023-11-26T22:44:31.060Z,16.60
2023-11-26T22:47:03.420Z,18.90
2023-11-26T22:49:36.094Z,17.50
2023-11-26T22:52:09.942Z,15.30
2023-11-26T22:54:42.061Z,15.50
2023-11-26T22:57:14.209Z,18.70
2023-11-26T22:59:46.236Z,18.30
2023-11-26T23:02:18.632Z,16.30
2023-11-26T23:04:50.841Z,15.20
2023-11-26T23:07:22.857Z,15.10
2023-11-26T23:09:54.898Z,15.20
2023-11-26T23:12:26.890Z,16.30
2023-11-26T23:15:00.255Z,16.90
2023-11-26T23:17:32.433Z,16.70
2023-11-26T23:20:07.129Z,15.50
2023-11-26T23:22:39.287Z,16.10
2023-11-26T23:25:12.638Z,15.90
2023-11-26T23:27:44.957Z,27.90
2023-11-26T23:30:18.489Z,16.10
2023-11-26T23:32:50.602Z,14.40
2023-11-26T23:35:22.630Z,13.70
2023-11-26T23:37:54.834Z,14.70
2023-11-26T23:40:27.504Z,18.30
2023-11-26T23:42:59.599Z,16.90
2023-11-26T23:45:31.775Z,15.20
2023-11-26T23:48:03.833Z,15.20
2023-11-26T23:50:35.939Z,13.00
2023-11-26T23:53:08.314Z,10.40
2023-11-26T23:55:40.699Z,20.90
2023-11-26T23:58:12.915Z,13.20
